Weather at Carriel Sur Airport

Public forecast

Using degrees Celsius for public forecast. Weather courtesy of forecast.io.

Current aviation weather report (METAR) for Carriel Sur Airport

Retrieved 2022/01/17 10:00 UTC (41 minutes ago):

SCIE 171000Z 17005KT CAVOK 10/07 Q1020

Aviation forecast (TAF) for Carriel Sur Airport

Retrieved 2022/01/17 06:00 UTC (5 hours ago):

TAF SCIE 170411Z 1706/1806 21008KT CAVOK TX18/1718Z TN13/1710Z TEMPO 1706/1710 17004KT BKN050 BECMG 1716/1718 24017KT BECMG 1802/1804 21006KT